sensor_id;sensor_type;location;lat;lon;timestamp;temperature;humidity
76203;DHT22;64985;46.364;17.008;2023-07-20T00:02:34;18.20;99.90
76203;DHT22;64985;46.364;17.008;2023-07-20T00:05:37;18.20;99.90
76203;DHT22;64985;46.364;17.008;2023-07-20T00:08:39;18.20;99.90
76203;DHT22;64985;46.364;17.008;2023-07-20T00:11:48;18.20;99.90
76203;DHT22;64985;46.364;17.008;2023-07-20T00:14:51;18.20;99.90
76203;DHT22;64985;46.364;17.008;2023-07-20T00:17:56;18.20;99.90
76203;DHT22;64985;46.364;17.008;2023-07-20T00:20:58;18.20;99.90
76203;DHT22;64985;46.364;17.008;2023-07-20T00:24:04;18.20;99.90
76203;DHT22;64985;46.364;17.008;2023-07-20T00:27:06;18.30;99.90
76203;DHT22;64985;46.364;17.008;2023-07-20T00:30:09;18.30;99.90
76203;DHT22;64985;46.364;17.008;2023-07-20T00:33:16;18.40;99.90
76203;DHT22;64985;46.364;17.008;2023-07-20T00:36:18;18.40;99.90
76203;DHT22;64985;46.364;17.008;2023-07-20T00:39:21;18.40;99.90
76203;DHT22;64985;46.364;17.008;2023-07-20T00:42:23;18.50;99.90
76203;DHT22;64985;46.364;17.008;2023-07-20T00:45:26;18.60;99.90
76203;DHT22;64985;46.364;17.008;2023-07-20T00:48:30;18.60;99.90
76203;DHT22;64985;46.364;17.008;2023-07-20T00:51:33;18.70;99.90
76203;DHT22;64985;46.364;17.008;2023-07-20T00:54:35;18.70;99.90
76203;DHT22;64985;46.364;17.008;2023-07-20T00:57:39;18.70;99.90
76203;DHT22;64985;46.364;17.008;2023-07-20T01:00:41;18.70;99.90
76203;DHT22;64985;46.364;17.008;2023-07-20T01:03:44;18.70;99.90
76203;DHT22;64985;46.364;17.008;2023-07-20T01:06:53;18.80;99.90
76203;DHT22;64985;46.364;17.008;2023-07-20T01:13:20;18.80;99.90
76203;DHT22;64985;46.364;17.008;2023-07-20T01:16:23;18.80;99.90
76203;DHT22;64985;46.364;17.008;2023-07-20T01:19:27;18.90;99.90
76203;DHT22;64985;46.364;17.008;2023-07-20T01:26:02;18.90;99.90
76203;DHT22;64985;46.364;17.008;2023-07-20T01:29:11;18.90;99.90
76203;DHT22;64985;46.364;17.008;2023-07-20T01:32:23;18.90;99.90
76203;DHT22;64985;46.364;17.008;2023-07-20T01:35:29;18.90;99.90
76203;DHT22;64985;46.364;17.008;2023-07-20T01:38:32;18.80;99.90
76203;DHT22;64985;46.364;17.008;2023-07-20T01:41:35;18.80;99.90
76203;DHT22;64985;46.364;17.008;2023-07-20T01:44:38;18.80;99.90
76203;DHT22;64985;46.364;17.008;2023-07-20T01:47:40;18.70;99.90
76203;DHT22;64985;46.364;17.008;2023-07-20T01:50:43;18.70;99.90
76203;DHT22;64985;46.364;17.008;2023-07-20T01:53:45;18.70;99.90
76203;DHT22;64985;46.364;17.008;2023-07-20T01:56:48;18.70;99.90
76203;DHT22;64985;46.364;17.008;2023-07-20T01:59:50;18.70;99.90
76203;DHT22;64985;46.364;17.008;2023-07-20T02:02:52;18.70;99.90
76203;DHT22;64985;46.364;17.008;2023-07-20T02:05:55;18.70;99.90
76203;DHT22;64985;46.364;17.008;2023-07-20T02:08:59;18.70;99.90
76203;DHT22;64985;46.364;17.008;2023-07-20T02:12:01;18.70;99.90
76203;DHT22;64985;46.364;17.008;2023-07-20T02:15:05;18.70;99.90
76203;DHT22;64985;46.364;17.008;2023-07-20T02:18:07;18.60;99.90
76203;DHT22;64985;46.364;17.008;2023-07-20T02:21:10;18.70;99.90
76203;DHT22;64985;46.364;17.008;2023-07-20T02:24:13;18.70;99.90
76203;DHT22;64985;46.364;17.008;2023-07-20T02:27:15;18.70;99.90
76203;DHT22;64985;46.364;17.008;2023-07-20T02:30:18;18.60;99.90
76203;DHT22;64985;46.364;17.008;2023-07-20T02:33:20;18.60;99.90
76203;DHT22;64985;46.364;17.008;2023-07-20T02:36:23;18.60;99.90
76203;DHT22;64985;46.364;17.008;2023-07-20T02:39:29;18.60;99.90
76203;DHT22;64985;46.364;17.008;2023-07-20T02:42:31;18.60;99.90
76203;DHT22;64985;46.364;17.008;2023-07-20T02:45:35;18.60;99.90
76203;DHT22;64985;46.364;17.008;2023-07-20T02:48:37;18.60;99.90
76203;DHT22;64985;46.364;17.008;2023-07-20T02:51:40;18.60;99.90
76203;DHT22;64985;46.364;17.008;2023-07-20T02:54:42;18.60;99.90
76203;DHT22;64985;46.364;17.008;2023-07-20T02:57:44;18.60;99.90
76203;DHT22;64985;46.364;17.008;2023-07-20T03:00:47;18.50;99.90
76203;DHT22;64985;46.364;17.008;2023-07-20T03:03:49;18.60;99.90
76203;DHT22;64985;46.364;17.008;2023-07-20T03:06:52;18.60;99.90
76203;DHT22;64985;46.364;17.008;2023-07-20T03:09:54;18.60;99.90
76203;DHT22;64985;46.364;17.008;2023-07-20T03:12:57;18.60;99.90
76203;DHT22;64985;46.364;17.008;2023-07-20T03:16:00;18.60;99.90
76203;DHT22;64985;46.364;17.008;2023-07-20T03:19:02;18.60;99.90
76203;DHT22;64985;46.364;17.008;2023-07-20T03:22:05;18.60;99.90
76203;DHT22;64985;46.364;17.008;2023-07-20T03:25:08;18.50;99.90
76203;DHT22;64985;46.364;17.008;2023-07-20T03:28:11;18.50;99.90
76203;DHT22;64985;46.364;17.008;2023-07-20T03:31:13;18.50;99.90
76203;DHT22;64985;46.364;17.008;2023-07-20T03:34:17;18.50;99.90
76203;DHT22;64985;46.364;17.008;2023-07-20T03:37:19;18.50;99.90
76203;DHT22;64985;46.364;17.008;2023-07-20T03:40:22;18.50;99.90
76203;DHT22;64985;46.364;17.008;2023-07-20T03:43:26;18.50;99.90
76203;DHT22;64985;46.364;17.008;2023-07-20T03:46:29;18.50;99.90
76203;DHT22;64985;46.364;17.008;2023-07-20T03:49:31;18.50;99.90
76203;DHT22;64985;46.364;17.008;2023-07-20T03:52:33;18.50;99.90
76203;DHT22;64985;46.364;17.008;2023-07-20T03:55:36;18.50;99.90
76203;DHT22;64985;46.364;17.008;2023-07-20T03:58:38;18.60;99.90
76203;DHT22;64985;46.364;17.008;2023-07-20T04:01:40;18.60;99.90
76203;DHT22;64985;46.364;17.008;2023-07-20T04:04:43;18.60;99.90
76203;DHT22;64985;46.364;17.008;2023-07-20T04:07:45;18.60;99.90
76203;DHT22;64985;46.364;17.008;2023-07-20T04:10:48;18.60;99.90
76203;DHT22;64985;46.364;17.008;2023-07-20T04:13:50;18.70;99.90
76203;DHT22;64985;46.364;17.008;2023-07-20T04:16:52;18.70;99.90
76203;DHT22;64985;46.364;17.008;2023-07-20T04:19:55;18.70;99.90
76203;DHT22;64985;46.364;17.008;2023-07-20T04:22:57;18.80;99.90
76203;DHT22;64985;46.364;17.008;2023-07-20T04:26:00;18.80;99.90
76203;DHT22;64985;46.364;17.008;2023-07-20T04:29:02;18.90;99.90
76203;DHT22;64985;46.364;17.008;2023-07-20T04:32:06;19.00;99.90
76203;DHT22;64985;46.364;17.008;2023-07-20T04:35:09;19.10;99.90
76203;DHT22;64985;46.364;17.008;2023-07-20T04:38:11;19.10;99.90
76203;DHT22;64985;46.364;17.008;2023-07-20T04:41:14;19.20;99.90
76203;DHT22;64985;46.364;17.008;2023-07-20T04:44:17;19.20;99.90
76203;DHT22;64985;46.364;17.008;2023-07-20T04:47:19;19.30;99.90
76203;DHT22;64985;46.364;17.008;2023-07-20T04:50:21;19.30;99.90
76203;DHT22;64985;46.364;17.008;2023-07-20T04:53:24;19.30;99.90
76203;DHT22;64985;46.364;17.008;2023-07-20T04:56:26;19.40;99.90
76203;DHT22;64985;46.364;17.008;2023-07-20T04:59:29;19.50;99.90
76203;DHT22;64985;46.364;17.008;2023-07-20T05:02:31;19.70;99.90
76203;DHT22;64985;46.364;17.008;2023-07-20T05:05:34;19.80;99.90
76203;DHT22;64985;46.364;17.008;2023-07-20T05:08:36;19.90;99.90
76203;DHT22;64985;46.364;17.008;2023-07-20T05:11:39;20.00;99.90
76203;DHT22;64985;46.364;17.008;2023-07-20T05:14:41;20.20;99.90
76203;DHT22;64985;46.364;17.008;2023-07-20T05:17:44;20.30;99.90
76203;DHT22;64985;46.364;17.008;2023-07-20T05:20:47;20.40;99.90
76203;DHT22;64985;46.364;17.008;2023-07-20T05:23:49;20.60;99.90
76203;DHT22;64985;46.364;17.008;2023-07-20T05:26:52;20.80;99.90
76203;DHT22;64985;46.364;17.008;2023-07-20T05:29:54;20.80;99.90
76203;DHT22;64985;46.364;17.008;2023-07-20T05:32:56;20.70;99.90
76203;DHT22;64985;46.364;17.008;2023-07-20T05:35:59;20.80;99.90
76203;DHT22;64985;46.364;17.008;2023-07-20T05:39:01;21.00;99.90
76203;DHT22;64985;46.364;17.008;2023-07-20T05:42:04;21.40;99.90
76203;DHT22;64985;46.364;17.008;2023-07-20T05:45:07;21.70;99.90
76203;DHT22;64985;46.364;17.008;2023-07-20T05:48:09;22.00;99.90
76203;DHT22;64985;46.364;17.008;2023-07-20T05:51:13;22.00;99.90
76203;DHT22;64985;46.364;17.008;2023-07-20T05:54:16;21.90;99.90
76203;DHT22;64985;46.364;17.008;2023-07-20T05:57:18;21.80;99.90
76203;DHT22;64985;46.364;17.008;2023-07-20T06:00:21;21.70;99.90
76203;DHT22;64985;46.364;17.008;2023-07-20T06:03:28;22.00;99.90
76203;DHT22;64985;46.364;17.008;2023-07-20T06:06:31;22.30;99.90
76203;DHT22;64985;46.364;17.008;2023-07-20T06:09:34;22.70;99.90
76203;DHT22;64985;46.364;17.008;2023-07-20T06:12:36;22.90;99.90
76203;DHT22;64985;46.364;17.008;2023-07-20T06:15:39;23.20;99.90
76203;DHT22;64985;46.364;17.008;2023-07-20T06:18:43;23.10;99.90
76203;DHT22;64985;46.364;17.008;2023-07-20T06:21:47;23.10;99.90
76203;DHT22;64985;46.364;17.008;2023-07-20T06:24:49;23.30;99.90
76203;DHT22;64985;46.364;17.008;2023-07-20T06:27:52;23.60;99.90
76203;DHT22;64985;46.364;17.008;2023-07-20T06:31:00;23.90;99.90
76203;DHT22;64985;46.364;17.008;2023-07-20T06:34:03;24.20;99.90
76203;DHT22;64985;46.364;17.008;2023-07-20T06:37:05;24.20;99.90
76203;DHT22;64985;46.364;17.008;2023-07-20T06:40:08;24.70;99.90
76203;DHT22;64985;46.364;17.008;2023-07-20T06:43:16;24.70;99.90
76203;DHT22;64985;46.364;17.008;2023-07-20T06:46:21;25.20;98.60
76203;DHT22;64985;46.364;17.008;2023-07-20T06:49:27;25.40;99.10
76203;DHT22;64985;46.364;17.008;2023-07-20T06:52:29;25.70;93.90
76203;DHT22;64985;46.364;17.008;2023-07-20T06:55:32;25.80;95.60
76203;DHT22;64985;46.364;17.008;2023-07-20T06:58:42;25.80;92.40
76203;DHT22;64985;46.364;17.008;2023-07-20T07:01:44;25.90;95.50
76203;DHT22;64985;46.364;17.008;2023-07-20T07:04:47;25.90;98.10
76203;DHT22;64985;46.364;17.008;2023-07-20T07:07:49;26.30;95.10
76203;DHT22;64985;46.364;17.008;2023-07-20T07:10:52;26.60;92.10
76203;DHT22;64985;46.364;17.008;2023-07-20T07:13:54;26.70;90.60
76203;DHT22;64985;46.364;17.008;2023-07-20T07:16:58;27.00;92.10
76203;DHT22;64985;46.364;17.008;2023-07-20T07:20:06;27.20;94.20
76203;DHT22;64985;46.364;17.008;2023-07-20T07:23:12;27.30;90.90
76203;DHT22;64985;46.364;17.008;2023-07-20T07:26:14;27.40;87.50
76203;DHT22;64985;46.364;17.008;2023-07-20T07:29:16;27.60;87.40
76203;DHT22;64985;46.364;17.008;2023-07-20T07:32:19;28.20;89.40
76203;DHT22;64985;46.364;17.008;2023-07-20T07:35:21;28.40;88.40
76203;DHT22;64985;46.364;17.008;2023-07-20T07:38:23;28.30;85.60
76203;DHT22;64985;46.364;17.008;2023-07-20T07:41:32;28.90;78.70
76203;DHT22;64985;46.364;17.008;2023-07-20T07:44:34;29.10;80.90
76203;DHT22;64985;46.364;17.008;2023-07-20T07:47:36;29.40;81.60
76203;DHT22;64985;46.364;17.008;2023-07-20T07:50:39;29.50;79.50
76203;DHT22;64985;46.364;17.008;2023-07-20T07:53:42;29.30;76.80
76203;DHT22;64985;46.364;17.008;2023-07-20T07:56:45;29.90;77.00
76203;DHT22;64985;46.364;17.008;2023-07-20T07:59:47;29.20;78.40
76203;DHT22;64985;46.364;17.008;2023-07-20T08:02:50;28.60;83.40
76203;DHT22;64985;46.364;17.008;2023-07-20T08:05:56;28.70;78.50
76203;DHT22;64985;46.364;17.008;2023-07-20T08:08:58;29.40;81.60
76203;DHT22;64985;46.364;17.008;2023-07-20T08:12:00;29.80;76.10
76203;DHT22;64985;46.364;17.008;2023-07-20T08:15:02;29.90;74.00
76203;DHT22;64985;46.364;17.008;2023-07-20T08:18:06;30.00;71.80
76203;DHT22;64985;46.364;17.008;2023-07-20T08:21:10;30.50;71.30
76203;DHT22;64985;46.364;17.008;2023-07-20T08:24:12;30.70;71.80
76203;DHT22;64985;46.364;17.008;2023-07-20T08:27:14;31.00;67.20
76203;DHT22;64985;46.364;17.008;2023-07-20T08:30:16;31.00;64.60
76203;DHT22;64985;46.364;17.008;2023-07-20T08:33:19;31.10;62.70
76203;DHT22;64985;46.364;17.008;2023-07-20T08:36:21;31.00;67.80
76203;DHT22;64985;46.364;17.008;2023-07-20T08:39:25;31.30;66.90
76203;DHT22;64985;46.364;17.008;2023-07-20T08:42:27;31.50;65.50
76203;DHT22;64985;46.364;17.008;2023-07-20T08:45:29;31.20;64.80
76203;DHT22;64985;46.364;17.008;2023-07-20T08:48:34;31.20;69.50
76203;DHT22;64985;46.364;17.008;2023-07-20T08:51:37;31.90;63.30
76203;DHT22;64985;46.364;17.008;2023-07-20T08:54:40;31.60;65.20
76203;DHT22;64985;46.364;17.008;2023-07-20T08:57:43;31.60;64.70
76203;DHT22;64985;46.364;17.008;2023-07-20T09:00:47;31.60;64.30
76203;DHT22;64985;46.364;17.008;2023-07-20T09:03:52;31.50;67.50
76203;DHT22;64985;46.364;17.008;2023-07-20T09:06:55;31.80;68.60
76203;DHT22;64985;46.364;17.008;2023-07-20T09:09:57;31.80;61.40
76203;DHT22;64985;46.364;17.008;2023-07-20T09:13:00;32.00;60.30
76203;DHT22;64985;46.364;17.008;2023-07-20T09:16:02;31.60;63.60
76203;DHT22;64985;46.364;17.008;2023-07-20T09:19:07;31.80;66.00
76203;DHT22;64985;46.364;17.008;2023-07-20T09:22:10;31.90;67.20
76203;DHT22;64985;46.364;17.008;2023-07-20T09:25:13;32.40;61.50
76203;DHT22;64985;46.364;17.008;2023-07-20T09:28:18;32.40;63.10
76203;DHT22;64985;46.364;17.008;2023-07-20T09:31:22;32.20;61.50
76203;DHT22;64985;46.364;17.008;2023-07-20T09:34:24;32.30;64.30
76203;DHT22;64985;46.364;17.008;2023-07-20T09:37:33;32.10;65.80
76203;DHT22;64985;46.364;17.008;2023-07-20T09:40:38;32.60;65.40
76203;DHT22;64985;46.364;17.008;2023-07-20T09:43:46;32.50;61.00
76203;DHT22;64985;46.364;17.008;2023-07-20T09:46:49;32.00;64.80
76203;DHT22;64985;46.364;17.008;2023-07-20T09:49:58;32.70;64.70
76203;DHT22;64985;46.364;17.008;2023-07-20T09:53:07;32.90;60.70
76203;DHT22;64985;46.364;17.008;2023-07-20T09:56:16;33.40;63.50
76203;DHT22;64985;46.364;17.008;2023-07-20T09:59:22;33.20;60.00
76203;DHT22;64985;46.364;17.008;2023-07-20T10:02:30;33.00;61.50
76203;DHT22;64985;46.364;17.008;2023-07-20T10:05:35;33.10;56.60
76203;DHT22;64985;46.364;17.008;2023-07-20T10:08:39;32.90;61.20
76203;DHT22;64985;46.364;17.008;2023-07-20T10:11:50;33.00;58.00
76203;DHT22;64985;46.364;17.008;2023-07-20T10:15:37;33.00;57.60
76203;DHT22;64985;46.364;17.008;2023-07-20T10:19:13;32.70;57.80
76203;DHT22;64985;46.364;17.008;2023-07-20T10:22:24;32.90;54.70
76203;DHT22;64985;46.364;17.008;2023-07-20T10:25:28;33.00;60.40
76203;DHT22;64985;46.364;17.008;2023-07-20T10:28:31;33.00;56.70
76203;DHT22;64985;46.364;17.008;2023-07-20T10:31:34;32.10;58.70
76203;DHT22;64985;46.364;17.008;2023-07-20T10:34:37;31.20;61.10
76203;DHT22;64985;46.364;17.008;2023-07-20T10:37:52;31.80;54.10
76203;DHT22;64985;46.364;17.008;2023-07-20T10:40:55;32.20;57.20
76203;DHT22;64985;46.364;17.008;2023-07-20T10:44:00;32.80;55.10
76203;DHT22;64985;46.364;17.008;2023-07-20T10:47:09;33.40;57.70
76203;DHT22;64985;46.364;17.008;2023-07-20T10:50:12;33.70;54.30
76203;DHT22;64985;46.364;17.008;2023-07-20T10:53:18;34.30;56.30
76203;DHT22;64985;46.364;17.008;2023-07-20T10:56:22;34.60;49.60
76203;DHT22;64985;46.364;17.008;2023-07-20T11:02:27;34.50;54.40
76203;DHT22;64985;46.364;17.008;2023-07-20T11:05:33;34.70;52.90
76203;DHT22;64985;46.364;17.008;2023-07-20T11:08:43;34.40;47.20
76203;DHT22;64985;46.364;17.008;2023-07-20T11:11:48;33.80;55.60
76203;DHT22;64985;46.364;17.008;2023-07-20T11:14:57;33.50;55.80
76203;DHT22;64985;46.364;17.008;2023-07-20T11:18:12;33.90;57.80
76203;DHT22;64985;46.364;17.008;2023-07-20T11:21:15;33.70;57.00
76203;DHT22;64985;46.364;17.008;2023-07-20T11:24:18;34.10;55.50
76203;DHT22;64985;46.364;17.008;2023-07-20T11:27:20;34.10;50.50
76203;DHT22;64985;46.364;17.008;2023-07-20T11:30:24;34.40;54.90
76203;DHT22;64985;46.364;17.008;2023-07-20T11:33:27;34.90;55.40
76203;DHT22;64985;46.364;17.008;2023-07-20T11:36:29;35.70;47.20
76203;DHT22;64985;46.364;17.008;2023-07-20T11:39:34;35.70;54.00
76203;DHT22;64985;46.364;17.008;2023-07-20T11:42:37;35.40;48.90
76203;DHT22;64985;46.364;17.008;2023-07-20T11:45:44;35.20;53.60
76203;DHT22;64985;46.364;17.008;2023-07-20T11:48:47;35.30;49.20
76203;DHT22;64985;46.364;17.008;2023-07-20T11:51:49;34.70;51.20
76203;DHT22;64985;46.364;17.008;2023-07-20T11:54:52;35.20;46.90
76203;DHT22;64985;46.364;17.008;2023-07-20T11:58:04;35.10;46.60
76203;DHT22;64985;46.364;17.008;2023-07-20T12:01:07;34.80;49.80
76203;DHT22;64985;46.364;17.008;2023-07-20T12:04:09;34.80;53.60
76203;DHT22;64985;46.364;17.008;2023-07-20T12:07:11;34.30;51.10
76203;DHT22;64985;46.364;17.008;2023-07-20T12:10:14;34.20;47.70
76203;DHT22;64985;46.364;17.008;2023-07-20T12:13:16;34.20;52.50
76203;DHT22;64985;46.364;17.008;2023-07-20T12:16:20;34.20;53.50
76203;DHT22;64985;46.364;17.008;2023-07-20T12:19:25;33.90;48.90
76203;DHT22;64985;46.364;17.008;2023-07-20T12:22:28;33.70;55.00
76203;DHT22;64985;46.364;17.008;2023-07-20T12:25:48;34.10;49.30
76203;DHT22;64985;46.364;17.008;2023-07-20T12:28:50;33.80;49.10
76203;DHT22;64985;46.364;17.008;2023-07-20T12:31:52;34.60;51.90
76203;DHT22;64985;46.364;17.008;2023-07-20T12:34:55;34.70;48.40
76203;DHT22;64985;46.364;17.008;2023-07-20T12:37:57;34.70;49.20
76203;DHT22;64985;46.364;17.008;2023-07-20T12:41:03;35.10;46.70
76203;DHT22;64985;46.364;17.008;2023-07-20T12:44:05;35.00;42.30
76203;DHT22;64985;46.364;17.008;2023-07-20T12:47:07;35.00;48.90
76203;DHT22;64985;46.364;17.008;2023-07-20T12:50:10;35.20;47.40
76203;DHT22;64985;46.364;17.008;2023-07-20T12:53:14;35.20;50.40
76203;DHT22;64985;46.364;17.008;2023-07-20T12:56:16;35.30;46.00
76203;DHT22;64985;46.364;17.008;2023-07-20T12:59:21;35.60;46.00
76203;DHT22;64985;46.364;17.008;2023-07-20T13:02:23;35.20;45.90
76203;DHT22;64985;46.364;17.008;2023-07-20T13:05:25;34.50;50.40
76203;DHT22;64985;46.364;17.008;2023-07-20T13:08:30;33.50;50.30
76203;DHT22;64985;46.364;17.008;2023-07-20T13:11:32;32.80;52.70
76203;DHT22;64985;46.364;17.008;2023-07-20T13:14:35;32.40;51.90
76203;DHT22;64985;46.364;17.008;2023-07-20T13:17:38;33.00;50.30
76203;DHT22;64985;46.364;17.008;2023-07-20T13:20:41;33.90;50.80
76203;DHT22;64985;46.364;17.008;2023-07-20T13:23:43;34.30;45.00
76203;DHT22;64985;46.364;17.008;2023-07-20T13:26:45;34.60;48.20
76203;DHT22;64985;46.364;17.008;2023-07-20T13:29:47;34.50;49.00
76203;DHT22;64985;46.364;17.008;2023-07-20T13:32:49;34.10;48.00
76203;DHT22;64985;46.364;17.008;2023-07-20T13:35:52;33.60;47.10
76203;DHT22;64985;46.364;17.008;2023-07-20T13:38:54;33.70;48.30
76203;DHT22;64985;46.364;17.008;2023-07-20T13:41:56;33.50;46.40
76203;DHT22;64985;46.364;17.008;2023-07-20T13:44:58;33.30;49.30
76203;DHT22;64985;46.364;17.008;2023-07-20T13:48:01;33.60;50.40
76203;DHT22;64985;46.364;17.008;2023-07-20T13:51:07;34.10;46.00
76203;DHT22;64985;46.364;17.008;2023-07-20T13:54:09;34.00;47.30
76203;DHT22;64985;46.364;17.008;2023-07-20T13:57:14;33.70;49.20
76203;DHT22;64985;46.364;17.008;2023-07-20T14:00:17;33.60;46.50
76203;DHT22;64985;46.364;17.008;2023-07-20T14:03:22;33.50;48.00
76203;DHT22;64985;46.364;17.008;2023-07-20T14:06:25;33.80;49.60
76203;DHT22;64985;46.364;17.008;2023-07-20T14:09:32;34.30;47.40
76203;DHT22;64985;46.364;17.008;2023-07-20T14:12:34;33.50;46.30
76203;DHT22;64985;46.364;17.008;2023-07-20T14:15:36;33.30;49.50
76203;DHT22;64985;46.364;17.008;2023-07-20T14:18:39;33.10;51.40
76203;DHT22;64985;46.364;17.008;2023-07-20T14:21:43;32.60;49.60
76203;DHT22;64985;46.364;17.008;2023-07-20T14:24:45;32.50;49.10
76203;DHT22;64985;46.364;17.008;2023-07-20T14:27:47;32.90;46.80
76203;DHT22;64985;46.364;17.008;2023-07-20T14:30:49;32.50;46.60
76203;DHT22;64985;46.364;17.008;2023-07-20T14:33:52;32.80;44.90
76203;DHT22;64985;46.364;17.008;2023-07-20T14:36:55;33.20;47.50
76203;DHT22;64985;46.364;17.008;2023-07-20T14:39:57;33.60;45.20
76203;DHT22;64985;46.364;17.008;2023-07-20T14:43:01;33.50;46.00
76203;DHT22;64985;46.364;17.008;2023-07-20T14:46:03;33.10;47.70
76203;DHT22;64985;46.364;17.008;2023-07-20T14:49:05;33.10;48.20
76203;DHT22;64985;46.364;17.008;2023-07-20T14:52:08;33.30;43.70
76203;DHT22;64985;46.364;17.008;2023-07-20T14:55:13;33.60;46.40
76203;DHT22;64985;46.364;17.008;2023-07-20T14:58:15;33.50;46.10
76203;DHT22;64985;46.364;17.008;2023-07-20T15:01:17;33.50;49.10
76203;DHT22;64985;46.364;17.008;2023-07-20T15:04:20;33.80;47.90
76203;DHT22;64985;46.364;17.008;2023-07-20T15:07:22;33.70;46.80
76203;DHT22;64985;46.364;17.008;2023-07-20T15:10:24;33.50;47.70
76203;DHT22;64985;46.364;17.008;2023-07-20T15:13:26;33.60;47.50
76203;DHT22;64985;46.364;17.008;2023-07-20T15:16:28;33.60;46.70
76203;DHT22;64985;46.364;17.008;2023-07-20T15:19:30;33.40;51.60
76203;DHT22;64985;46.364;17.008;2023-07-20T15:22:34;33.40;46.40
76203;DHT22;64985;46.364;17.008;2023-07-20T15:25:37;33.20;48.30
76203;DHT22;64985;46.364;17.008;2023-07-20T15:28:39;33.10;47.40
76203;DHT22;64985;46.364;17.008;2023-07-20T15:31:42;32.70;48.40
76203;DHT22;64985;46.364;17.008;2023-07-20T15:34:47;32.40;51.20
76203;DHT22;64985;46.364;17.008;2023-07-20T15:37:50;32.50;46.60
76203;DHT22;64985;46.364;17.008;2023-07-20T15:40:52;32.50;45.80
76203;DHT22;64985;46.364;17.008;2023-07-20T15:43:55;32.60;46.30
76203;DHT22;64985;46.364;17.008;2023-07-20T15:46:58;32.60;47.40
76203;DHT22;64985;46.364;17.008;2023-07-20T15:50:02;32.60;48.80
76203;DHT22;64985;46.364;17.008;2023-07-20T15:53:05;32.50;47.80
76203;DHT22;64985;46.364;17.008;2023-07-20T15:56:07;32.30;46.00
76203;DHT22;64985;46.364;17.008;2023-07-20T15:59:11;32.10;51.20
76203;DHT22;64985;46.364;17.008;2023-07-20T16:02:13;31.90;49.00
76203;DHT22;64985;46.364;17.008;2023-07-20T16:05:17;31.40;50.20
76203;DHT22;64985;46.364;17.008;2023-07-20T16:08:19;31.10;55.00
76203;DHT22;64985;46.364;17.008;2023-07-20T16:11:21;30.70;56.70
76203;DHT22;64985;46.364;17.008;2023-07-20T16:14:28;29.80;60.80
76203;DHT22;64985;46.364;17.008;2023-07-20T16:17:50;29.00;62.00
76203;DHT22;64985;46.364;17.008;2023-07-20T16:20:52;28.40;63.50
76203;DHT22;64985;46.364;17.008;2023-07-20T16:23:55;28.00;67.40
76203;DHT22;64985;46.364;17.008;2023-07-20T16:26:57;27.60;69.60
76203;DHT22;64985;46.364;17.008;2023-07-20T16:29:59;27.30;69.10
76203;DHT22;64985;46.364;17.008;2023-07-20T16:33:01;27.10;72.50
76203;DHT22;64985;46.364;17.008;2023-07-20T16:36:11;26.90;72.70
76203;DHT22;64985;46.364;17.008;2023-07-20T16:39:14;26.50;76.30
76203;DHT22;64985;46.364;17.008;2023-07-20T16:42:19;26.20;79.10
76203;DHT22;64985;46.364;17.008;2023-07-20T16:45:41;25.90;83.00
76203;DHT22;64985;46.364;17.008;2023-07-20T16:48:45;25.60;89.60
76203;DHT22;64985;46.364;17.008;2023-07-20T16:51:50;25.50;88.20
76203;DHT22;64985;46.364;17.008;2023-07-20T16:54:52;25.20;90.80
76203;DHT22;64985;46.364;17.008;2023-07-20T16:57:54;25.10;94.20
76203;DHT22;64985;46.364;17.008;2023-07-20T17:01:00;25.00;98.40
76203;DHT22;64985;46.364;17.008;2023-07-20T17:04:08;24.90;95.80
76203;DHT22;64985;46.364;17.008;2023-07-20T17:07:11;24.70;96.40
76203;DHT22;64985;46.364;17.008;2023-07-20T17:10:16;24.50;90.90
76203;DHT22;64985;46.364;17.008;2023-07-20T17:13:19;24.30;89.70
76203;DHT22;64985;46.364;17.008;2023-07-20T17:16:21;24.10;91.60
76203;DHT22;64985;46.364;17.008;2023-07-20T17:19:23;23.80;90.90
76203;DHT22;64985;46.364;17.008;2023-07-20T17:22:33;23.60;96.80
76203;DHT22;64985;46.364;17.008;2023-07-20T17:25:35;23.40;98.70
76203;DHT22;64985;46.364;17.008;2023-07-20T17:28:38;23.20;99.90
76203;DHT22;64985;46.364;17.008;2023-07-20T17:31:43;23.10;98.70
76203;DHT22;64985;46.364;17.008;2023-07-20T17:34:45;23.00;94.70
76203;DHT22;64985;46.364;17.008;2023-07-20T17:37:47;22.90;97.10
76203;DHT22;64985;46.364;17.008;2023-07-20T17:40:52;22.80;99.90
76203;DHT22;64985;46.364;17.008;2023-07-20T17:43:56;22.70;98.60
76203;DHT22;64985;46.364;17.008;2023-07-20T17:46:59;22.60;98.70
76203;DHT22;64985;46.364;17.008;2023-07-20T17:50:05;22.50;98.50
76203;DHT22;64985;46.364;17.008;2023-07-20T17:53:08;22.50;99.90
76203;DHT22;64985;46.364;17.008;2023-07-20T17:56:11;22.50;99.90
76203;DHT22;64985;46.364;17.008;2023-07-20T17:59:13;22.40;99.90
76203;DHT22;64985;46.364;17.008;2023-07-20T18:02:16;22.30;99.90
76203;DHT22;64985;46.364;17.008;2023-07-20T18:05:18;22.30;99.90
76203;DHT22;64985;46.364;17.008;2023-07-20T18:08:21;22.20;99.90
76203;DHT22;64985;46.364;17.008;2023-07-20T18:11:23;22.00;99.90
76203;DHT22;64985;46.364;17.008;2023-07-20T18:14:26;21.90;99.90
76203;DHT22;64985;46.364;17.008;2023-07-20T18:17:29;21.80;99.90
76203;DHT22;64985;46.364;17.008;2023-07-20T18:20:31;21.70;99.90
76203;DHT22;64985;46.364;17.008;2023-07-20T18:23:37;21.70;99.90
76203;DHT22;64985;46.364;17.008;2023-07-20T18:26:39;21.70;99.90
76203;DHT22;64985;46.364;17.008;2023-07-20T18:29:43;21.70;99.90
76203;DHT22;64985;46.364;17.008;2023-07-20T18:32:46;21.50;99.90
76203;DHT22;64985;46.364;17.008;2023-07-20T18:35:53;21.50;99.90
76203;DHT22;64985;46.364;17.008;2023-07-20T18:38:56;21.50;99.90
76203;DHT22;64985;46.364;17.008;2023-07-20T18:42:00;21.30;99.90
76203;DHT22;64985;46.364;17.008;2023-07-20T18:45:04;21.30;99.90
76203;DHT22;64985;46.364;17.008;2023-07-20T18:48:07;21.20;99.90
76203;DHT22;64985;46.364;17.008;2023-07-20T18:51:10;21.10;99.90
76203;DHT22;64985;46.364;17.008;2023-07-20T18:54:12;21.00;99.90
76203;DHT22;64985;46.364;17.008;2023-07-20T18:57:15;21.00;99.90
76203;DHT22;64985;46.364;17.008;2023-07-20T19:00:17;21.00;99.90
76203;DHT22;64985;46.364;17.008;2023-07-20T19:03:20;21.00;99.90
76203;DHT22;64985;46.364;17.008;2023-07-20T19:06:24;21.00;99.90
76203;DHT22;64985;46.364;17.008;2023-07-20T19:09:26;21.00;99.90
76203;DHT22;64985;46.364;17.008;2023-07-20T19:12:29;21.00;99.90